CheckWX is a tool to help pilots better visualize weather data.  It is not intended as a substitute for an official pre-flight weather briefing.

17:30:29 UTC

CYQY TAF
Sydney / J.A. Douglas McCurdy Airport
Sydney, Canada
TAF AMD CYQY 241408Z 2414/2424 29015G25KT P6SM BKN030 TEMPO 2414/2416 6SM -SN BKN020 FM241600 28015G25KT P6SM SCT030 BECMG 2421/2423 26012G22KT RMK NXT FCST BY 241800Z

Mar-24@
14:00 UTC

Mar-24 @ 14:00 UTC

Mar-24@
16:00 UTC

Mar-24 @ 16:00 UTC

TAF AMD CYQY 241408Z 2414/2424 29015G25KT P6SM BKN030

Expired

Wind
  • 290° at 15 KTS
  • {Gusting to 25 KTS
Cloud Levels
  • Broken at 3,000' AGL

Mar-24@
14:00 UTC

Mar-24 @ 14:00 UTC

Mar-24@
16:00 UTC

Mar-24 @ 16:00 UTC

TEMPO 2414/2416 6SM -SN BKN020

Expired

Conditions
Light Snow
Cloud Levels
  • Broken at 2,000' AGL

Mar-24@
16:00 UTC

Mar-24 @ 16:00 UTC

Mar-24@
21:00 UTC

Mar-24 @ 21:00 UTC

FM241600 28015G25KT P6SM SCT030

From

From Standard forecast or significant change

Wind
  • 280° at 15 KTS
  • {Gusting to 25 KTS
Cloud Levels
  • Scattered at 3,000' AGL

Mar-24@
21:00 UTC

Mar-24 @ 21:00 UTC

Mar-25@
00:00 UTC

Mar-25 @ 00:00 UTC

BECMG 2421/2423 26012G22KT RMK NXT FCST BY 241800Z

Becoming

Becoming Conditions expected by Sun, Mar 24, 2019 @ 23:00 UTC

Wind
  • 260° at 12 KTS
  • {Gusting to 22 KTS
Cloud Levels
  • Scattered at 3,000' AGL